sensor_id;sensor_type;location;lat;lon;timestamp;P1;durP1;ratioP1;P2;durP2;ratioP2
50906;SDS011;36882;27.680;85.304;2022-09-11T00:00:35;35.88;;;20.95;;
50906;SDS011;36882;27.680;85.304;2022-09-11T00:03:06;41.15;;;23.35;;
50906;SDS011;36882;27.680;85.304;2022-09-11T00:05:38;32.80;;;23.23;;
50906;SDS011;36882;27.680;85.304;2022-09-11T00:08:10;29.35;;;21.67;;
50906;SDS011;36882;27.680;85.304;2022-09-11T00:10:42;30.17;;;22.63;;
50906;SDS011;36882;27.680;85.304;2022-09-11T00:13:17;35.90;;;23.25;;
50906;SDS011;36882;27.680;85.304;2022-09-11T00:15:49;34.83;;;23.17;;
50906;SDS011;36882;27.680;85.304;2022-09-11T00:18:20;28.98;;;22.35;;
50906;SDS011;36882;27.680;85.304;2022-09-11T00:20:52;31.45;;;24.08;;
50906;SDS011;36882;27.680;85.304;2022-09-11T00:23:25;34.70;;;22.80;;
50906;SDS011;36882;27.680;85.304;2022-09-11T00:25:59;32.50;;;22.35;;
50906;SDS011;36882;27.680;85.304;2022-09-11T00:28:31;35.92;;;22.15;;
50906;SDS011;36882;27.680;85.304;2022-09-11T00:31:03;34.60;;;23.00;;
50906;SDS011;36882;27.680;85.304;2022-09-11T00:33:36;30.80;;;20.27;;
50906;SDS011;36882;27.680;85.304;2022-09-11T00:36:15;41.47;;;22.58;;
50906;SDS011;36882;27.680;85.304;2022-09-11T00:38:48;32.33;;;21.83;;
50906;SDS011;36882;27.680;85.304;2022-09-11T00:41:22;27.77;;;21.95;;
50906;SDS011;36882;27.680;85.304;2022-09-11T00:44:04;27.25;;;19.92;;
50906;SDS011;36882;27.680;85.304;2022-09-11T00:46:38;26.67;;;20.25;;
50906;SDS011;36882;27.680;85.304;2022-09-11T00:52:22;25.50;;;18.13;;
50906;SDS011;36882;27.680;85.304;2022-09-11T00:55:06;25.38;;;17.17;;
50906;SDS011;36882;27.680;85.304;2022-09-11T00:57:46;24.90;;;19.60;;
50906;SDS011;36882;27.680;85.304;2022-09-11T01:00:19;27.17;;;19.50;;
50906;SDS011;36882;27.680;85.304;2022-09-11T01:02:50;27.42;;;17.90;;
50906;SDS011;36882;27.680;85.304;2022-09-11T01:05:24;27.23;;;19.30;;
50906;SDS011;36882;27.680;85.304;2022-09-11T01:07:56;28.92;;;19.38;;
50906;SDS011;36882;27.680;85.304;2022-09-11T01:13:42;37.30;;;22.73;;
50906;SDS011;36882;27.680;85.304;2022-09-11T01:25:23;40.20;;;25.88;;
50906;SDS011;36882;27.680;85.304;2022-09-11T01:27:59;34.53;;;25.38;;
50906;SDS011;36882;27.680;85.304;2022-09-11T01:30:38;31.88;;;26.30;;
50906;SDS011;36882;27.680;85.304;2022-09-11T01:33:33;34.95;;;26.33;;
50906;SDS011;36882;27.680;85.304;2022-09-11T01:36:21;29.63;;;25.70;;
50906;SDS011;36882;27.680;85.304;2022-09-11T01:39:02;34.03;;;27.55;;
50906;SDS011;36882;27.680;85.304;2022-09-11T01:42:03;46.97;;;28.10;;
50906;SDS011;36882;27.680;85.304;2022-09-11T01:44:38;36.17;;;27.05;;
50906;SDS011;36882;27.680;85.304;2022-09-11T01:47:17;36.85;;;26.33;;
50906;SDS011;36882;27.680;85.304;2022-09-11T01:49:51;40.47;;;26.90;;
50906;SDS011;36882;27.680;85.304;2022-09-11T01:52:33;30.25;;;26.92;;
50906;SDS011;36882;27.680;85.304;2022-09-11T01:55:14;34.70;;;26.90;;
50906;SDS011;36882;27.680;85.304;2022-09-11T01:57:52;38.20;;;26.48;;
50906;SDS011;36882;27.680;85.304;2022-09-11T02:00:26;37.33;;;27.90;;
50906;SDS011;36882;27.680;85.304;2022-09-11T02:03:03;38.63;;;29.08;;
50906;SDS011;36882;27.680;85.304;2022-09-11T02:05:43;40.13;;;28.00;;
50906;SDS011;36882;27.680;85.304;2022-09-11T02:08:19;41.28;;;27.13;;
50906;SDS011;36882;27.680;85.304;2022-09-11T02:10:58;41.47;;;29.40;;
50906;SDS011;36882;27.680;85.304;2022-09-11T02:13:38;38.42;;;26.80;;
50906;SDS011;36882;27.680;85.304;2022-09-11T02:16:18;35.03;;;27.15;;
50906;SDS011;36882;27.680;85.304;2022-09-11T02:19:11;38.70;;;27.50;;
50906;SDS011;36882;27.680;85.304;2022-09-11T02:21:46;43.10;;;27.65;;
50906;SDS011;36882;27.680;85.304;2022-09-11T02:24:19;37.20;;;28.23;;
50906;SDS011;36882;27.680;85.304;2022-09-11T02:26:51;47.42;;;32.33;;
50906;SDS011;36882;27.680;85.304;2022-09-11T02:29:26;40.85;;;29.08;;
50906;SDS011;36882;27.680;85.304;2022-09-11T02:31:56;43.95;;;30.50;;
50906;SDS011;36882;27.680;85.304;2022-09-11T02:34:29;39.95;;;29.13;;
50906;SDS011;36882;27.680;85.304;2022-09-11T02:43:22;41.95;;;29.95;;
50906;SDS011;36882;27.680;85.304;2022-09-11T02:46:19;39.75;;;30.58;;
50906;SDS011;36882;27.680;85.304;2022-09-11T02:49:19;42.25;;;29.48;;
50906;SDS011;36882;27.680;85.304;2022-09-11T02:52:18;37.90;;;29.98;;
50906;SDS011;36882;27.680;85.304;2022-09-11T02:55:10;41.45;;;28.92;;
50906;SDS011;36882;27.680;85.304;2022-09-11T03:00:23;45.63;;;27.23;;
50906;SDS011;36882;27.680;85.304;2022-09-11T03:02:54;40.67;;;31.85;;
50906;SDS011;36882;27.680;85.304;2022-09-11T03:05:24;40.05;;;29.83;;
50906;SDS011;36882;27.680;85.304;2022-09-11T03:07:56;45.55;;;29.23;;
50906;SDS011;36882;27.680;85.304;2022-09-11T03:10:27;29.05;;;24.90;;
50906;SDS011;36882;27.680;85.304;2022-09-11T03:12:57;38.92;;;28.63;;
50906;SDS011;36882;27.680;85.304;2022-09-11T03:15:28;39.53;;;31.15;;
50906;SDS011;36882;27.680;85.304;2022-09-11T03:17:59;36.50;;;25.55;;
50906;SDS011;36882;27.680;85.304;2022-09-11T03:20:30;35.00;;;25.02;;
50906;SDS011;36882;27.680;85.304;2022-09-11T03:23:01;38.17;;;27.23;;
50906;SDS011;36882;27.680;85.304;2022-09-11T03:25:38;36.53;;;26.10;;
50906;SDS011;36882;27.680;85.304;2022-09-11T03:28:09;38.17;;;27.33;;
50906;SDS011;36882;27.680;85.304;2022-09-11T03:30:40;32.15;;;26.25;;
50906;SDS011;36882;27.680;85.304;2022-09-11T03:33:10;34.20;;;28.08;;
50906;SDS011;36882;27.680;85.304;2022-09-11T03:35:41;30.83;;;22.83;;
50906;SDS011;36882;27.680;85.304;2022-09-11T03:38:12;31.73;;;24.75;;
50906;SDS011;36882;27.680;85.304;2022-09-11T03:40:43;31.00;;;23.65;;
50906;SDS011;36882;27.680;85.304;2022-09-11T03:43:13;34.05;;;23.45;;
50906;SDS011;36882;27.680;85.304;2022-09-11T03:45:47;30.48;;;23.63;;
50906;SDS011;36882;27.680;85.304;2022-09-11T03:48:18;33.67;;;24.45;;
50906;SDS011;36882;27.680;85.304;2022-09-11T03:50:48;31.73;;;23.58;;
50906;SDS011;36882;27.680;85.304;2022-09-11T03:53:18;30.60;;;22.80;;
50906;SDS011;36882;27.680;85.304;2022-09-11T03:55:49;34.75;;;25.50;;
50906;SDS011;36882;27.680;85.304;2022-09-11T03:58:20;36.75;;;24.90;;
50906;SDS011;36882;27.680;85.304;2022-09-11T04:00:50;34.60;;;27.08;;
50906;SDS011;36882;27.680;85.304;2022-09-11T04:03:21;31.52;;;24.85;;
50906;SDS011;36882;27.680;85.304;2022-09-11T04:05:59;37.92;;;25.55;;
50906;SDS011;36882;27.680;85.304;2022-09-11T04:08:30;29.65;;;23.05;;
50906;SDS011;36882;27.680;85.304;2022-09-11T04:11:02;38.92;;;25.38;;
50906;SDS011;36882;27.680;85.304;2022-09-11T04:13:35;39.78;;;25.05;;
50906;SDS011;36882;27.680;85.304;2022-09-11T04:16:08;33.97;;;20.33;;
50906;SDS011;36882;27.680;85.304;2022-09-11T04:18:41;30.48;;;22.35;;
50906;SDS011;36882;27.680;85.304;2022-09-11T04:21:14;30.60;;;25.92;;
50906;SDS011;36882;27.680;85.304;2022-09-11T04:23:49;38.08;;;28.20;;
50906;SDS011;36882;27.680;85.304;2022-09-11T04:26:23;32.63;;;26.90;;
50906;SDS011;36882;27.680;85.304;2022-09-11T04:28:54;32.42;;;26.75;;
50906;SDS011;36882;27.680;85.304;2022-09-11T04:31:26;36.97;;;26.23;;
50906;SDS011;36882;27.680;85.304;2022-09-11T04:33:57;32.97;;;23.35;;
50906;SDS011;36882;27.680;85.304;2022-09-11T04:36:28;39.33;;;25.33;;
50906;SDS011;36882;27.680;85.304;2022-09-11T04:38:58;29.17;;;21.77;;
50906;SDS011;36882;27.680;85.304;2022-09-11T04:41:29;28.40;;;19.92;;
50906;SDS011;36882;27.680;85.304;2022-09-11T04:44:00;29.60;;;19.95;;
50906;SDS011;36882;27.680;85.304;2022-09-11T04:46:31;30.02;;;20.42;;
50906;SDS011;36882;27.680;85.304;2022-09-11T04:49:02;27.88;;;20.20;;
50906;SDS011;36882;27.680;85.304;2022-09-11T04:51:34;30.88;;;20.30;;
50906;SDS011;36882;27.680;85.304;2022-09-11T04:54:07;28.23;;;18.60;;
50906;SDS011;36882;27.680;85.304;2022-09-11T04:56:41;26.13;;;20.05;;
50906;SDS011;36882;27.680;85.304;2022-09-11T04:59:13;38.50;;;22.23;;
50906;SDS011;36882;27.680;85.304;2022-09-11T05:01:47;32.20;;;18.65;;
50906;SDS011;36882;27.680;85.304;2022-09-11T05:04:19;29.73;;;21.00;;
50906;SDS011;36882;27.680;85.304;2022-09-11T05:06:55;27.33;;;19.95;;
50906;SDS011;36882;27.680;85.304;2022-09-11T05:09:26;22.50;;;17.92;;
50906;SDS011;36882;27.680;85.304;2022-09-11T05:11:56;31.23;;;17.90;;
50906;SDS011;36882;27.680;85.304;2022-09-11T05:14:27;26.90;;;17.30;;
50906;SDS011;36882;27.680;85.304;2022-09-11T05:17:00;27.25;;;17.05;;
50906;SDS011;36882;27.680;85.304;2022-09-11T05:19:31;32.53;;;18.00;;
50906;SDS011;36882;27.680;85.304;2022-09-11T05:22:01;27.75;;;18.85;;
50906;SDS011;36882;27.680;85.304;2022-09-11T05:24:32;28.25;;;19.55;;
50906;SDS011;36882;27.680;85.304;2022-09-11T05:27:02;19.95;;;17.80;;
50906;SDS011;36882;27.680;85.304;2022-09-11T05:29:34;21.27;;;17.58;;
50906;SDS011;36882;27.680;85.304;2022-09-11T05:32:05;22.38;;;18.83;;
50906;SDS011;36882;27.680;85.304;2022-09-11T05:34:36;25.13;;;17.55;;
50906;SDS011;36882;27.680;85.304;2022-09-11T05:37:06;25.88;;;17.75;;
50906;SDS011;36882;27.680;85.304;2022-09-11T05:39:36;20.35;;;17.90;;
50906;SDS011;36882;27.680;85.304;2022-09-11T05:42:07;23.25;;;16.70;;
50906;SDS011;36882;27.680;85.304;2022-09-11T05:44:37;20.23;;;15.57;;
50906;SDS011;36882;27.680;85.304;2022-09-11T05:47:08;14.77;;;12.85;;
50906;SDS011;36882;27.680;85.304;2022-09-11T05:49:38;17.58;;;11.75;;
50906;SDS011;36882;27.680;85.304;2022-09-11T05:52:09;13.43;;;11.90;;
50906;SDS011;36882;27.680;85.304;2022-09-11T05:54:39;16.23;;;10.90;;
50906;SDS011;36882;27.680;85.304;2022-09-11T05:57:09;11.25;;;9.88;;
50906;SDS011;36882;27.680;85.304;2022-09-11T05:59:40;14.30;;;9.68;;
50906;SDS011;36882;27.680;85.304;2022-09-11T06:02:10;16.08;;;10.50;;
50906;SDS011;36882;27.680;85.304;2022-09-11T06:04:41;15.70;;;11.20;;
50906;SDS011;36882;27.680;85.304;2022-09-11T06:07:12;14.18;;;10.02;;
50906;SDS011;36882;27.680;85.304;2022-09-11T06:09:42;13.68;;;9.13;;
50906;SDS011;36882;27.680;85.304;2022-09-11T06:12:13;13.90;;;7.75;;
50906;SDS011;36882;27.680;85.304;2022-09-11T06:14:43;14.27;;;8.90;;
50906;SDS011;36882;27.680;85.304;2022-09-11T06:17:14;11.10;;;7.95;;
50906;SDS011;36882;27.680;85.304;2022-09-11T06:19:45;12.45;;;8.48;;
50906;SDS011;36882;27.680;85.304;2022-09-11T06:22:15;17.23;;;8.07;;
50906;SDS011;36882;27.680;85.304;2022-09-11T06:24:45;10.80;;;9.73;;
50906;SDS011;36882;27.680;85.304;2022-09-11T06:27:16;14.20;;;10.70;;
50906;SDS011;36882;27.680;85.304;2022-09-11T06:29:47;19.20;;;11.52;;
50906;SDS011;36882;27.680;85.304;2022-09-11T06:32:18;11.27;;;10.15;;
50906;SDS011;36882;27.680;85.304;2022-09-11T06:34:48;14.63;;;11.05;;
50906;SDS011;36882;27.680;85.304;2022-09-11T06:37:19;15.70;;;10.02;;
50906;SDS011;36882;27.680;85.304;2022-09-11T06:39:49;13.05;;;9.60;;
50906;SDS011;36882;27.680;85.304;2022-09-11T06:42:19;11.20;;;9.52;;
50906;SDS011;36882;27.680;85.304;2022-09-11T06:44:51;14.25;;;9.68;;
50906;SDS011;36882;27.680;85.304;2022-09-11T06:47:21;18.30;;;9.70;;
50906;SDS011;36882;27.680;85.304;2022-09-11T06:49:52;17.05;;;10.10;;
50906;SDS011;36882;27.680;85.304;2022-09-11T06:52:22;17.52;;;11.00;;
50906;SDS011;36882;27.680;85.304;2022-09-11T06:54:52;12.98;;;9.95;;
50906;SDS011;36882;27.680;85.304;2022-09-11T06:57:22;13.90;;;9.70;;
50906;SDS011;36882;27.680;85.304;2022-09-11T06:59:53;15.82;;;9.48;;
50906;SDS011;36882;27.680;85.304;2022-09-11T07:02:25;23.52;;;10.38;;
50906;SDS011;36882;27.680;85.304;2022-09-11T07:04:55;14.98;;;10.25;;
50906;SDS011;36882;27.680;85.304;2022-09-11T07:07:26;12.23;;;9.85;;
50906;SDS011;36882;27.680;85.304;2022-09-11T07:09:56;18.25;;;11.30;;
50906;SDS011;36882;27.680;85.304;2022-09-11T07:12:31;17.85;;;10.73;;
50906;SDS011;36882;27.680;85.304;2022-09-11T07:15:01;20.25;;;10.00;;
50906;SDS011;36882;27.680;85.304;2022-09-11T07:17:32;16.77;;;10.00;;
50906;SDS011;36882;27.680;85.304;2022-09-11T07:20:04;13.15;;;9.38;;
50906;SDS011;36882;27.680;85.304;2022-09-11T07:22:37;11.80;;;8.93;;
50906;SDS011;36882;27.680;85.304;2022-09-11T07:25:08;12.65;;;8.57;;
50906;SDS011;36882;27.680;85.304;2022-09-11T07:27:38;14.48;;;8.38;;
50906;SDS011;36882;27.680;85.304;2022-09-11T07:30:09;17.05;;;9.05;;
50906;SDS011;36882;27.680;85.304;2022-09-11T07:32:40;11.70;;;9.27;;
50906;SDS011;36882;27.680;85.304;2022-09-11T07:35:11;14.05;;;8.43;;
50906;SDS011;36882;27.680;85.304;2022-09-11T07:37:44;15.38;;;9.93;;
50906;SDS011;36882;27.680;85.304;2022-09-11T07:40:16;18.38;;;11.20;;
50906;SDS011;36882;27.680;85.304;2022-09-11T07:42:47;20.20;;;12.52;;
50906;SDS011;36882;27.680;85.304;2022-09-11T07:45:17;19.65;;;11.13;;
50906;SDS011;36882;27.680;85.304;2022-09-11T07:47:48;14.23;;;9.95;;
50906;SDS011;36882;27.680;85.304;2022-09-11T07:50:19;24.05;;;12.40;;
50906;SDS011;36882;27.680;85.304;2022-09-11T07:52:49;14.10;;;10.55;;
50906;SDS011;36882;27.680;85.304;2022-09-11T07:55:19;20.65;;;11.07;;
50906;SDS011;36882;27.680;85.304;2022-09-11T07:57:50;15.50;;;10.75;;
50906;SDS011;36882;27.680;85.304;2022-09-11T08:00:21;18.27;;;9.70;;
50906;SDS011;36882;27.680;85.304;2022-09-11T08:02:52;16.73;;;9.70;;
50906;SDS011;36882;27.680;85.304;2022-09-11T08:05:24;19.50;;;10.10;;
50906;SDS011;36882;27.680;85.304;2022-09-11T08:07:55;15.00;;;9.80;;
50906;SDS011;36882;27.680;85.304;2022-09-11T08:10:25;13.23;;;9.30;;
50906;SDS011;36882;27.680;85.304;2022-09-11T08:12:56;13.25;;;9.13;;
50906;SDS011;36882;27.680;85.304;2022-09-11T08:15:27;15.30;;;8.30;;
50906;SDS011;36882;27.680;85.304;2022-09-11T08:17:58;11.57;;;8.63;;
50906;SDS011;36882;27.680;85.304;2022-09-11T08:20:29;10.63;;;8.73;;
50906;SDS011;36882;27.680;85.304;2022-09-11T08:23:00;15.00;;;8.77;;
50906;SDS011;36882;27.680;85.304;2022-09-11T08:25:30;12.43;;;9.13;;
50906;SDS011;36882;27.680;85.304;2022-09-11T08:28:04;15.27;;;9.75;;
50906;SDS011;36882;27.680;85.304;2022-09-11T08:30:34;12.38;;;10.00;;
50906;SDS011;36882;27.680;85.304;2022-09-11T08:33:06;13.45;;;10.98;;
50906;SDS011;36882;27.680;85.304;2022-09-11T08:35:37;15.05;;;12.27;;
50906;SDS011;36882;27.680;85.304;2022-09-11T08:38:07;18.65;;;11.90;;
50906;SDS011;36882;27.680;85.304;2022-09-11T08:40:37;17.73;;;12.13;;
50906;SDS011;36882;27.680;85.304;2022-09-11T08:43:12;14.00;;;11.35;;
50906;SDS011;36882;27.680;85.304;2022-09-11T08:45:59;16.98;;;12.68;;
50906;SDS011;36882;27.680;85.304;2022-09-11T08:48:42;18.63;;;13.20;;
50906;SDS011;36882;27.680;85.304;2022-09-11T08:51:28;25.65;;;16.88;;
50906;SDS011;36882;27.680;85.304;2022-09-11T08:53:59;20.40;;;14.60;;
50906;SDS011;36882;27.680;85.304;2022-09-11T08:56:31;21.75;;;15.30;;
50906;SDS011;36882;27.680;85.304;2022-09-11T09:05:13;23.95;;;14.82;;
50906;SDS011;36882;27.680;85.304;2022-09-11T09:11:09;18.73;;;14.70;;
50906;SDS011;36882;27.680;85.304;2022-09-11T09:16:56;24.58;;;15.50;;
50906;SDS011;36882;27.680;85.304;2022-09-11T09:19:51;18.33;;;13.57;;
50906;SDS011;36882;27.680;85.304;2022-09-11T09:22:39;18.50;;;13.77;;
50906;SDS011;36882;27.680;85.304;2022-09-11T09:25:18;19.58;;;14.82;;
50906;SDS011;36882;27.680;85.304;2022-09-11T09:30:48;19.63;;;12.95;;
50906;SDS011;36882;27.680;85.304;2022-09-11T09:33:25;21.73;;;13.13;;
50906;SDS011;36882;27.680;85.304;2022-09-11T09:36:09;19.02;;;14.23;;
50906;SDS011;36882;27.680;85.304;2022-09-11T09:38:44;22.45;;;13.93;;
50906;SDS011;36882;27.680;85.304;2022-09-11T09:44:23;26.90;;;15.90;;
50906;SDS011;36882;27.680;85.304;2022-09-11T09:47:16;20.77;;;14.68;;
50906;SDS011;36882;27.680;85.304;2022-09-11T09:49:47;17.45;;;13.18;;
50906;SDS011;36882;27.680;85.304;2022-09-11T09:52:21;23.30;;;13.52;;
50906;SDS011;36882;27.680;85.304;2022-09-11T09:54:54;28.15;;;13.85;;
50906;SDS011;36882;27.680;85.304;2022-09-11T09:57:31;22.15;;;12.70;;
50906;SDS011;36882;27.680;85.304;2022-09-11T10:02:49;19.67;;;12.90;;
50906;SDS011;36882;27.680;85.304;2022-09-11T10:05:27;20.63;;;12.02;;
50906;SDS011;36882;27.680;85.304;2022-09-11T10:11:04;14.55;;;12.60;;
50906;SDS011;36882;27.680;85.304;2022-09-11T10:13:39;17.30;;;11.80;;
50906;SDS011;36882;27.680;85.304;2022-09-11T10:16:22;25.45;;;12.55;;
50906;SDS011;36882;27.680;85.304;2022-09-11T10:18:55;18.23;;;12.27;;
50906;SDS011;36882;27.680;85.304;2022-09-11T10:21:26;17.63;;;11.65;;
50906;SDS011;36882;27.680;85.304;2022-09-11T10:24:02;16.80;;;11.52;;
50906;SDS011;36882;27.680;85.304;2022-09-11T10:26:51;24.00;;;12.30;;
50906;SDS011;36882;27.680;85.304;2022-09-11T10:29:25;24.77;;;11.32;;
50906;SDS011;36882;27.680;85.304;2022-09-11T10:31:59;14.07;;;10.95;;
50906;SDS011;36882;27.680;85.304;2022-09-11T10:34:37;18.58;;;12.35;;
50906;SDS011;36882;27.680;85.304;2022-09-11T10:37:21;15.88;;;10.50;;
50906;SDS011;36882;27.680;85.304;2022-09-11T10:40:00;15.18;;;10.27;;
50906;SDS011;36882;27.680;85.304;2022-09-11T10:42:35;18.20;;;11.02;;
50906;SDS011;36882;27.680;85.304;2022-09-11T10:45:13;19.40;;;10.60;;
50906;SDS011;36882;27.680;85.304;2022-09-11T10:47:45;19.35;;;11.48;;
50906;SDS011;36882;27.680;85.304;2022-09-11T10:50:18;20.40;;;11.60;;
50906;SDS011;36882;27.680;85.304;2022-09-11T10:55:51;15.15;;;11.40;;
50906;SDS011;36882;27.680;85.304;2022-09-11T10:58:30;18.08;;;11.43;;
50906;SDS011;36882;27.680;85.304;2022-09-11T11:01:05;19.48;;;10.18;;
50906;SDS011;36882;27.680;85.304;2022-09-11T11:03:35;12.65;;;9.93;;
50906;SDS011;36882;27.680;85.304;2022-09-11T11:12:14;17.98;;;11.10;;
50906;SDS011;36882;27.680;85.304;2022-09-11T11:15:05;22.45;;;14.23;;
50906;SDS011;36882;27.680;85.304;2022-09-11T11:21:05;18.38;;;13.57;;
50906;SDS011;36882;27.680;85.304;2022-09-11T11:23:55;14.80;;;10.65;;
50906;SDS011;36882;27.680;85.304;2022-09-11T11:29:59;15.13;;;10.77;;
50906;SDS011;36882;27.680;85.304;2022-09-11T11:35:55;13.90;;;11.43;;
50906;SDS011;36882;27.680;85.304;2022-09-11T11:41:30;16.27;;;11.25;;
50906;SDS011;36882;27.680;85.304;2022-09-11T11:44:08;18.02;;;10.10;;
50906;SDS011;36882;27.680;85.304;2022-09-11T11:46:44;16.45;;;12.02;;
50906;SDS011;36882;27.680;85.304;2022-09-11T11:52:33;17.10;;;11.65;;
50906;SDS011;36882;27.680;85.304;2022-09-11T11:55:16;34.88;;;12.80;;
50906;SDS011;36882;27.680;85.304;2022-09-11T11:58:04;18.95;;;11.80;;
50906;SDS011;36882;27.680;85.304;2022-09-11T12:00:56;18.33;;;12.50;;
50906;SDS011;36882;27.680;85.304;2022-09-11T12:03:32;16.85;;;12.52;;
50906;SDS011;36882;27.680;85.304;2022-09-11T12:06:12;26.70;;;13.55;;
50906;SDS011;36882;27.680;85.304;2022-09-11T12:08:43;21.15;;;13.85;;
50906;SDS011;36882;27.680;85.304;2022-09-11T12:11:15;16.20;;;13.55;;
50906;SDS011;36882;27.680;85.304;2022-09-11T12:13:54;22.05;;;13.10;;
50906;SDS011;36882;27.680;85.304;2022-09-11T12:16:26;20.23;;;14.13;;
50906;SDS011;36882;27.680;85.304;2022-09-11T12:24:50;26.15;;;14.40;;
50906;SDS011;36882;27.680;85.304;2022-09-11T12:30:22;25.90;;;16.23;;
50906;SDS011;36882;27.680;85.304;2022-09-11T12:32:55;23.92;;;17.63;;
50906;SDS011;36882;27.680;85.304;2022-09-11T12:35:45;29.08;;;17.38;;
50906;SDS011;36882;27.680;85.304;2022-09-11T12:38:30;26.77;;;17.45;;
50906;SDS011;36882;27.680;85.304;2022-09-11T12:41:20;23.85;;;15.00;;
50906;SDS011;36882;27.680;85.304;2022-09-11T12:44:02;23.88;;;13.75;;
50906;SDS011;36882;27.680;85.304;2022-09-11T12:49:39;22.33;;;15.35;;
50906;SDS011;36882;27.680;85.304;2022-09-11T12:52:17;30.27;;;15.93;;
50906;SDS011;36882;27.680;85.304;2022-09-11T12:54:53;27.23;;;16.33;;
50906;SDS011;36882;27.680;85.304;2022-09-11T12:57:34;28.73;;;18.08;;
50906;SDS011;36882;27.680;85.304;2022-09-11T13:00:06;29.80;;;16.05;;
50906;SDS011;36882;27.680;85.304;2022-09-11T13:02:55;31.42;;;22.05;;
50906;SDS011;36882;27.680;85.304;2022-09-11T13:05:28;34.90;;;20.63;;
50906;SDS011;36882;27.680;85.304;2022-09-11T13:08:05;24.95;;;18.35;;
50906;SDS011;36882;27.680;85.304;2022-09-11T13:10:50;25.55;;;16.38;;
50906;SDS011;36882;27.680;85.304;2022-09-11T13:13:38;22.42;;;17.25;;
50906;SDS011;36882;27.680;85.304;2022-09-11T13:16:21;30.52;;;18.92;;
50906;SDS011;36882;27.680;85.304;2022-09-11T13:19:13;29.05;;;16.05;;
50906;SDS011;36882;27.680;85.304;2022-09-11T13:21:46;28.42;;;16.48;;
50906;SDS011;36882;27.680;85.304;2022-09-11T13:24:24;26.63;;;17.88;;
50906;SDS011;36882;27.680;85.304;2022-09-11T13:27:05;37.30;;;19.02;;
50906;SDS011;36882;27.680;85.304;2022-09-11T13:29:37;42.93;;;19.57;;
50906;SDS011;36882;27.680;85.304;2022-09-11T13:32:12;29.77;;;16.98;;
50906;SDS011;36882;27.680;85.304;2022-09-11T13:34:45;29.40;;;17.75;;
50906;SDS011;36882;27.680;85.304;2022-09-11T13:37:24;26.95;;;17.00;;
50906;SDS011;36882;27.680;85.304;2022-09-11T13:40:18;25.95;;;18.17;;
50906;SDS011;36882;27.680;85.304;2022-09-11T13:42:54;31.35;;;16.98;;
50906;SDS011;36882;27.680;85.304;2022-09-11T13:45:26;33.30;;;16.05;;
50906;SDS011;36882;27.680;85.304;2022-09-11T13:47:57;28.80;;;17.75;;
50906;SDS011;36882;27.680;85.304;2022-09-11T13:50:28;27.70;;;16.98;;
50906;SDS011;36882;27.680;85.304;2022-09-11T13:52:59;34.60;;;17.25;;
50906;SDS011;36882;27.680;85.304;2022-09-11T13:55:29;29.42;;;16.85;;
50906;SDS011;36882;27.680;85.304;2022-09-11T13:58:01;39.60;;;17.08;;
50906;SDS011;36882;27.680;85.304;2022-09-11T14:00:49;34.95;;;18.02;;
50906;SDS011;36882;27.680;85.304;2022-09-11T14:03:23;26.52;;;15.82;;
50906;SDS011;36882;27.680;85.304;2022-09-11T14:06:01;27.05;;;17.15;;
50906;SDS011;36882;27.680;85.304;2022-09-11T14:08:42;26.08;;;16.73;;
50906;SDS011;36882;27.680;85.304;2022-09-11T14:11:23;31.30;;;16.80;;
50906;SDS011;36882;27.680;85.304;2022-09-11T14:13:59;34.65;;;17.33;;
50906;SDS011;36882;27.680;85.304;2022-09-11T14:16:47;25.60;;;16.77;;
50906;SDS011;36882;27.680;85.304;2022-09-11T14:19:24;23.75;;;16.38;;
50906;SDS011;36882;27.680;85.304;2022-09-11T14:21:58;24.95;;;17.20;;
50906;SDS011;36882;27.680;85.304;2022-09-11T14:24:54;64.45;;;19.83;;
50906;SDS011;36882;27.680;85.304;2022-09-11T14:27:33;28.88;;;17.80;;
50906;SDS011;36882;27.680;85.304;2022-09-11T14:33:12;42.25;;;19.30;;
50906;SDS011;36882;27.680;85.304;2022-09-11T14:35:51;25.83;;;18.38;;
50906;SDS011;36882;27.680;85.304;2022-09-11T14:38:33;29.65;;;17.40;;
50906;SDS011;36882;27.680;85.304;2022-09-11T14:41:05;32.40;;;18.15;;
50906;SDS011;36882;27.680;85.304;2022-09-11T14:43:36;39.88;;;19.90;;
50906;SDS011;36882;27.680;85.304;2022-09-11T14:46:08;37.45;;;19.50;;
50906;SDS011;36882;27.680;85.304;2022-09-11T14:48:38;33.03;;;19.23;;
50906;SDS011;36882;27.680;85.304;2022-09-11T14:51:11;35.50;;;19.45;;
50906;SDS011;36882;27.680;85.304;2022-09-11T14:53:41;30.15;;;18.23;;
50906;SDS011;36882;27.680;85.304;2022-09-11T14:56:12;32.90;;;18.33;;
50906;SDS011;36882;27.680;85.304;2022-09-11T14:58:43;27.05;;;19.08;;
50906;SDS011;36882;27.680;85.304;2022-09-11T15:01:14;40.67;;;20.90;;
50906;SDS011;36882;27.680;85.304;2022-09-11T15:03:45;30.63;;;20.35;;
50906;SDS011;36882;27.680;85.304;2022-09-11T15:06:16;37.50;;;22.35;;
50906;SDS011;36882;27.680;85.304;2022-09-11T15:08:48;33.30;;;19.90;;
50906;SDS011;36882;27.680;85.304;2022-09-11T15:11:18;31.83;;;20.13;;
50906;SDS011;36882;27.680;85.304;2022-09-11T15:13:49;40.03;;;20.20;;
50906;SDS011;36882;27.680;85.304;2022-09-11T15:16:40;29.10;;;19.95;;
50906;SDS011;36882;27.680;85.304;2022-09-11T15:19:10;25.38;;;20.48;;
50906;SDS011;36882;27.680;85.304;2022-09-11T15:21:43;26.77;;;18.00;;
50906;SDS011;36882;27.680;85.304;2022-09-11T15:24:13;36.55;;;19.40;;
50906;SDS011;36882;27.680;85.304;2022-09-11T15:26:44;29.65;;;21.73;;
50906;SDS011;36882;27.680;85.304;2022-09-11T15:29:15;42.78;;;21.15;;
50906;SDS011;36882;27.680;85.304;2022-09-11T15:31:45;33.35;;;20.60;;
50906;SDS011;36882;27.680;85.304;2022-09-11T15:34:16;22.38;;;16.73;;
50906;SDS011;36882;27.680;85.304;2022-09-11T15:36:47;27.55;;;16.35;;
50906;SDS011;36882;27.680;85.304;2022-09-11T15:39:19;36.70;;;18.65;;
50906;SDS011;36882;27.680;85.304;2022-09-11T15:41:53;24.25;;;17.83;;
50906;SDS011;36882;27.680;85.304;2022-09-11T15:44:24;23.92;;;16.35;;
50906;SDS011;36882;27.680;85.304;2022-09-11T15:46:57;29.48;;;18.42;;
50906;SDS011;36882;27.680;85.304;2022-09-11T15:49:27;29.17;;;19.65;;
50906;SDS011;36882;27.680;85.304;2022-09-11T15:51:59;24.73;;;16.65;;
50906;SDS011;36882;27.680;85.304;2022-09-11T15:54:30;30.52;;;17.88;;
50906;SDS011;36882;27.680;85.304;2022-09-11T15:57:00;28.48;;;17.48;;
50906;SDS011;36882;27.680;85.304;2022-09-11T15:59:31;30.27;;;17.90;;
50906;SDS011;36882;27.680;85.304;2022-09-11T16:02:02;26.83;;;16.30;;
50906;SDS011;36882;27.680;85.304;2022-09-11T16:04:32;34.28;;;18.25;;
50906;SDS011;36882;27.680;85.304;2022-09-11T16:07:03;31.77;;;17.98;;
50906;SDS011;36882;27.680;85.304;2022-09-11T16:09:33;35.97;;;18.88;;
50906;SDS011;36882;27.680;85.304;2022-09-11T16:12:04;26.45;;;20.95;;
50906;SDS011;36882;27.680;85.304;2022-09-11T16:14:35;28.83;;;20.00;;
50906;SDS011;36882;27.680;85.304;2022-09-11T16:17:06;31.13;;;19.45;;
50906;SDS011;36882;27.680;85.304;2022-09-11T16:19:44;28.08;;;19.55;;
50906;SDS011;36882;27.680;85.304;2022-09-11T16:22:15;27.13;;;19.95;;